Time;durP1;ratioP1;P1;durP2;ratioP2;P2;SDS_P1;SDS_P2;PMS_P1;PMS_P2;Temp;Humidity;BMP_temperature;BMP_pressure;BME280_temperature;BME280_humidity;BME280_pressure;Samples;Min_cycle;Max_cycle;Signal;HPM_P1;HPM_P2
2021/06/07 06:08:23;;;;;;;3.80;3.25;;;;;;;19.96;66.43;93587.63;5079406;28;174451;-46
2021/06/07 06:10:49;;;;;;;3.25;2.88;;;;;;;20.17;65.98;93593.13;5093118;28;20661;-48
2021/06/07 06:13:14;;;;;;;4.65;4.10;;;;;;;20.36;65.24;93593.66;5088246;28;20069;-48
2021/06/07 06:15:39;;;;;;;4.43;3.67;;;;;;;20.62;64.72;93585.34;5088899;28;20031;-47
2021/06/07 06:18:05;;;;;;;3.78;3.45;;;;;;;20.76;62.63;93595.31;5092742;28;20108;-45
2021/06/07 06:20:30;;;;;;;5.28;4.18;;;;;;;20.88;62.37;93593.22;5091871;28;20038;-47
2021/06/07 06:22:59;;;;;;;4.88;3.80;;;;;;;21.14;62.52;93591.97;5091542;28;20035;-46
2021/06/07 06:25:24;;;;;;;3.93;3.57;;;;;;;21.21;61.11;93583.88;5102779;28;20016;-50
2021/06/07 06:27:50;;;;;;;4.57;3.28;;;;;;;21.32;61.38;93591.53;5109530;28;20507;-46
2021/06/07 06:30:20;;;;;;;4.35;3.95;;;;;;;21.46;60.02;93586.72;5109403;28;20432;-48
2021/06/07 06:32:48;;;;;;;5.85;4.13;;;;;;;21.62;60.07;93584.78;5109638;28;20028;-48
2021/06/07 06:35:14;;;;;;;8.02;3.88;;;;;;;21.82;58.97;93580.28;5107271;28;20031;-44
2021/06/07 06:37:43;;;;;;;5.10;4.00;;;;;;;21.91;58.77;93579.41;5088288;28;20012;-45
2021/06/07 06:40:09;;;;;;;3.50;3.20;;;;;;;21.93;57.37;93585.13;5087281;28;20100;-45
2021/06/07 06:42:35;;;;;;;5.07;3.90;;;;;;;21.85;57.86;93581.91;5088551;28;20093;-47
2021/06/07 06:45:03;;;;;;;4.72;4.05;;;;;;;21.79;56.31;93585.06;5088680;28;20032;-46
2021/06/07 06:47:29;;;;;;;8.13;4.23;;;;;;;21.94;57.49;93586.59;5089047;28;20028;-49
2021/06/07 06:49:55;;;;;;;4.95;4.13;;;;;;;22.07;57.60;93585.19;5088885;28;20559;-45
2021/06/07 06:52:20;;;;;;;5.20;4.07;;;;;;;22.25;56.77;93591.75;5088847;28;20084;-45
2021/06/07 06:54:46;;;;;;;4.30;3.90;;;;;;;22.41;55.50;93589.81;5089117;28;20020;-48
2021/06/07 06:57:11;;;;;;;5.38;3.95;;;;;;;22.54;54.72;93589.78;5088949;28;20027;-45
2021/06/07 06:59:37;;;;;;;3.97;3.47;;;;;;;22.83;54.71;93594.09;5089153;28;20016;-46
2021/06/07 07:02:02;;;;;;;7.35;4.22;;;;;;;22.90;53.46;93590.25;5088041;28;20020;-49
2021/06/07 07:04:28;;;;;;;10.07;5.20;;;;;;;23.07;53.84;93587.59;5088993;28;20509;-48
2021/06/07 07:06:53;;;;;;;5.25;3.50;;;;;;;22.90;53.07;93590.25;5088480;28;20047;-45
2021/06/07 07:09:19;;;;;;;4.97;3.47;;;;;;;22.89;53.97;93585.97;5089062;28;20038;-44
2021/06/07 07:11:44;;;;;;;5.28;4.05;;;;;;;23.05;54.44;93595.22;5088916;28;20672;-46
2021/06/07 07:14:09;;;;;;;4.35;3.88;;;;;;;23.01;54.54;93589.41;5090603;28;20504;-45
2021/06/07 07:16:35;;;;;;;4.00;3.58;;;;;;;23.09;53.86;93592.59;5092220;28;20103;-47
2021/06/07 07:19:00;;;;;;;5.85;3.60;;;;;;;23.14;53.58;93599.91;5092233;28;20028;-45
2021/06/07 07:21:26;;;;;;;4.50;4.07;;;;;;;23.18;54.35;93597.28;5101772;28;20023;-47
2021/06/07 07:23:51;;;;;;;5.32;4.03;;;;;;;23.11;54.52;93575.81;5108062;28;20023;-47
2021/06/07 07:26:17;;;;;;;4.30;3.80;;;;;;;23.17;53.28;93604.28;5111319;28;20027;-46
2021/06/07 07:28:43;;;;;;;7.32;3.47;;;;;;;23.17;54.88;93602.19;5112225;28;20028;-44
2021/06/07 07:31:09;;;;;;;4.05;3.33;;;;;;;23.28;54.63;93601.34;5112665;28;20623;-44
2021/06/07 07:33:38;;;;;;;5.32;3.35;;;;;;;23.38;54.01;93601.13;5111355;28;20106;-44
2021/06/07 07:36:11;;;;;;;6.07;4.25;;;;;;;23.44;53.64;93595.78;5112066;28;20028;-46
2021/06/07 07:38:36;;;;;;;4.70;4.07;;;;;;;23.48;53.98;93593.16;5112113;28;20516;-46
2021/06/07 07:41:02;;;;;;;5.85;3.50;;;;;;;23.36;53.24;93581.31;5112363;28;20027;-46
2021/06/07 07:43:28;;;;;;;4.10;3.40;;;;;;;23.45;53.96;93605.72;5111975;28;20511;-44
2021/06/07 07:45:53;;;;;;;5.22;4.40;;;;;;;23.41;54.37;93587.88;5112317;28;20038;-44
2021/06/07 07:48:19;;;;;;;5.63;3.78;;;;;;;23.47;53.68;93597.38;5111610;28;20077;-46
2021/06/07 07:50:44;;;;;;;6.60;4.60;;;;;;;23.44;53.62;93595.78;5107882;28;20035;-46
2021/06/07 07:53:10;;;;;;;4.50;4.10;;;;;;;23.31;54.16;93594.44;5097686;28;20028;-46
2021/06/07 07:55:36;;;;;;;7.60;4.35;;;;;;;23.20;53.52;93605.84;5109404;28;20024;-44
2021/06/07 07:58:04;;;;;;;7.93;4.70;;;;;;;23.08;53.82;93597.53;5109790;28;20027;-47
2021/06/07 08:00:30;;;;;;;4.95;4.10;;;;;;;23.15;54.92;93602.09;5109502;28;20023;-45
2021/06/07 08:02:58;;;;;;;5.43;4.22;;;;;;;23.33;54.94;93596.66;5109731;28;20111;-45
2021/06/07 08:05:24;;;;;;;5.78;4.32;;;;;;;23.54;52.52;93599.09;5108132;28;20028;-44
2021/06/07 08:07:50;;;;;;;8.98;4.80;;;;;;;23.69;52.98;93597.72;5108864;28;20047;-47
2021/06/07 08:10:15;;;;;;;4.97;4.47;;;;;;;23.81;51.26;93603.91;5099531;28;20113;-45
2021/06/07 08:12:41;;;;;;;5.55;4.57;;;;;;;23.73;51.02;93604.28;5088865;28;20134;-45
2021/06/07 08:15:08;;;;;;;6.53;4.38;;;;;;;23.64;52.25;93602.41;5088387;28;20024;-46
2021/06/07 08:17:34;;;;;;;6.68;4.93;;;;;;;23.51;53.51;93606.00;5099371;28;20451;-46
2021/06/07 08:20:00;;;;;;;5.50;5.00;;;;;;;23.44;53.27;93611.97;5108919;28;20033;-44
2021/06/07 08:22:25;;;;;;;5.65;4.38;;;;;;;23.35;52.41;93613.66;5108895;28;20019;-45
2021/06/07 08:24:51;;;;;;;5.78;5.13;;;;;;;23.67;53.52;93608.88;5108741;28;20058;-47
2021/06/07 08:27:16;;;;;;;5.40;4.45;;;;;;;23.85;52.32;93610.47;5108907;28;20088;-44
2021/06/07 08:29:42;;;;;;;5.03;4.25;;;;;;;23.85;52.11;93610.47;5109600;28;20085;-45
2021/06/07 08:32:07;;;;;;;6.15;4.55;;;;;;;23.86;52.34;93606.31;5109286;28;20511;-47
2021/06/07 08:34:34;;;;;;;7.97;4.50;;;;;;;23.88;53.35;93609.22;5109040;28;20028;-43
2021/06/07 08:37:00;;;;;;;6.35;4.45;;;;;;;23.55;52.72;93600.56;5091824;28;20081;-47
2021/06/07 08:39:25;;;;;;;5.63;4.60;;;;;;;23.39;51.92;93602.59;5088216;28;20024;-46
2021/06/07 08:41:51;;;;;;;5.85;4.32;;;;;;;23.23;52.65;93602.50;5088207;28;20534;-44
2021/06/07 08:44:16;;;;;;;5.10;4.35;;;;;;;23.44;53.60;93603.50;5089528;28;20089;-46
2021/06/07 08:46:42;;;;;;;6.05;5.20;;;;;;;23.45;53.64;93607.81;5088568;28;20028;-41
2021/06/07 08:49:07;;;;;;;5.28;4.75;;;;;;;23.50;53.96;93620.75;5070158;28;20389;-45
2021/06/07 08:51:33;;;;;;;6.53;4.78;;;;;;;23.38;53.55;93615.22;5100487;28;20049;-45
2021/06/07 08:53:58;;;;;;;7.22;5.05;;;;;;;23.20;54.78;93617.84;5103318;28;20684;-46
2021/06/07 08:56:24;;;;;;;6.95;5.10;;;;;;;22.97;55.46;93606.09;5087928;28;20028;-43
2021/06/07 08:58:49;;;;;;;6.18;4.97;;;;;;;22.84;56.35;93616.00;5087882;28;20028;-41
2021/06/07 09:01:16;;;;;;;6.35;4.93;;;;;;;22.92;55.92;93607.22;5070018;28;20119;-44
2021/06/07 09:03:42;;;;;;;5.63;4.45;;;;;;;22.80;56.56;93606.63;5087640;28;20020;-42
2021/06/07 09:06:07;;;;;;;7.72;5.00;;;;;;;22.75;55.98;93607.75;5086991;28;20027;-42
2021/06/07 09:08:38;;;;;;;5.30;4.60;;;;;;;22.70;56.45;93606.13;5087595;28;20420;-45
2021/06/07 09:11:11;;;;;;;6.20;5.40;;;;;;;22.54;57.46;93606.69;5088102;28;20059;-42
2021/06/07 09:13:38;;;;;;;5.70;5.10;;;;;;;22.47;57.82;93607.75;5097098;28;20031;-40
2021/06/07 09:16:05;;;;;;;7.13;5.47;;;;;;;22.24;58.23;93615.63;5093165;28;20056;-42
2021/06/07 09:18:41;;;;;;;6.68;4.90;;;;;;;22.04;59.24;93612.44;5097860;28;20027;-41
2021/06/07 09:21:12;;;;;;;7.00;4.85;;;;;;;21.94;60.85;93614.69;5108222;28;20109;-43
2021/06/07 09:23:47;;;;;;;5.82;4.78;;;;;;;21.71;61.89;93617.63;5107331;28;20037;-40
2021/06/07 09:26:38;;;;;;;5.35;4.80;;;;;;;21.39;63.14;93622.16;5087863;28;20035;-41
2021/06/07 09:29:06;;;;;;;6.65;5.25;;;;;;;21.25;63.82;93615.72;5087703;28;20055;-40
2021/06/07 09:31:41;;;;;;;7.68;4.45;;;;;;;21.29;64.43;93615.25;5087576;28;20118;-42
2021/06/07 09:34:07;;;;;;;8.13;5.18;;;;;;;21.23;63.88;93607.19;5087992;28;20420;-41
2021/06/07 09:36:43;;;;;;;5.20;4.38;;;;;;;21.17;64.57;93603.31;5086831;28;20039;-40
2021/06/07 09:39:36;;;;;;;6.95;5.18;;;;;;;21.18;65.12;93596.34;5087993;28;20420;-41
2021/06/07 09:42:02;;;;;;;7.97;5.03;;;;;;;21.08;65.33;93594.44;5084379;28;20040;-41
2021/06/07 09:44:54;;;;;;;6.97;5.15;;;;;;;21.26;65.39;93588.38;5087541;28;20038;-42
2021/06/07 09:47:23;;;;;;;5.10;4.35;;;;;;;21.47;65.16;93590.97;5083168;28;20101;-41
2021/06/07 09:49:49;;;;;;;;;;;;;;;21.62;65.10;93587.59;5087994;28;20039;-41
2021/06/07 09:52:23;;;;;;;10.82;4.50;;;;;;;21.68;64.95;93587.94;5087085;28;19918;-41
2021/06/07 09:55:08;;;;;;;5.68;5.10;;;;;;;21.84;65.09;93597.28;5087175;28;20024;-43
2021/06/07 09:57:44;;;;;;;5.18;4.43;;;;;;;22.03;64.48;93588.50;5087048;28;20039;-42
2021/06/07 10:00:10;;;;;;;5.95;4.78;;;;;;;22.19;63.66;93591.44;5087166;28;20571;-41
2021/06/07 10:02:36;;;;;;;5.07;4.25;;;;;;;22.35;63.52;93598.66;5069053;28;20024;-41
2021/06/07 10:05:04;;;;;;;6.85;5.00;;;;;;;22.47;63.55;93602.13;5087325;28;20034;-43
2021/06/07 10:07:29;;;;;;;4.30;3.80;;;;;;;22.60;59.36;93601.41;5086563;28;20040;-41
2021/06/07 10:10:15;;;;;;;5.63;4.35;;;;;;;22.76;58.72;93593.06;5092302;28;20111;-42
2021/06/07 10:12:43;;;;;;;5.47;4.28;;;;;;;22.76;58.45;93593.06;5095801;28;20089;-42
2021/06/07 10:15:11;;;;;;;10.63;5.20;;;;;;;22.79;58.71;93591.81;5105511;28;20027;-43
2021/06/07 10:17:37;;;;;;;4.78;4.28;;;;;;;22.98;58.40;93587.81;5090905;28;20527;-42
2021/06/07 10:22:37;;;;;;;6.75;4.80;;;;;;;23.95;55.68;93582.03;5087021;28;20036;-43
2021/06/07 10:25:04;;;;;;;5.57;4.43;;;;;;;24.32;55.03;93576.00;5100942;28;20504;-41
2021/06/07 10:27:29;;;;;;;5.32;4.38;;;;;;;24.49;54.28;93584.53;5086644;28;20032;-43
2021/06/07 10:29:55;;;;;;;5.60;4.10;;;;;;;24.67;54.23;93581.78;5086433;28;20032;-43
2021/06/07 10:32:30;;;;;;;5.18;4.20;;;;;;;24.20;54.24;93572.59;5068749;28;20028;-43
2021/06/07 10:34:57;;;;;;;5.22;4.35;;;;;;;24.04;55.37;93569.72;5086692;28;20058;-41
2021/06/07 10:37:25;;;;;;;8.50;5.07;;;;;;;23.86;55.82;93564.00;5086063;28;20039;-45
2021/06/07 10:39:51;;;;;;;5.53;4.75;;;;;;;23.71;57.01;93564.69;5086351;28;20028;-43
2021/06/07 10:42:25;;;;;;;5.53;4.82;;;;;;;23.62;57.46;93562.13;5086473;28;20093;-41
2021/06/07 10:44:57;;;;;;;5.70;4.72;;;;;;;23.51;57.50;93566.56;5086471;28;20048;-44
2021/06/07 10:47:44;;;;;;;5.15;4.18;;;;;;;23.43;57.74;93569.00;5086561;28;20043;-42
2021/06/07 10:50:11;;;;;;;4.45;4.03;;;;;;;23.23;58.01;93576.41;5090180;28;20035;-42
2021/06/07 10:52:59;;;;;;;6.05;4.25;;;;;;;22.94;58.23;93579.19;5090101;28;20035;-43
2021/06/07 10:56:15;;;;;;;5.45;4.60;;;;;;;22.79;59.36;93580.56;5090753;28;20173;-43
2021/06/07 10:58:58;;;;;;;5.65;4.30;;;;;;;22.49;59.75;93576.88;5051613;28;20039;-42
2021/06/07 11:01:25;;;;;;;4.30;3.90;;;;;;;22.32;60.62;93573.84;5103857;28;20024;-41
2021/06/07 11:03:56;;;;;;;4.80;3.78;;;;;;;22.04;60.82;93575.16;5089372;28;20729;-43
2021/06/07 11:06:22;;;;;;;9.98;5.25;;;;;;;21.95;60.88;93574.00;5098127;28;20063;-42
2021/06/07 11:09:07;;;;;;;6.32;4.85;;;;;;;21.73;61.77;93581.19;5091179;28;20094;-42
2021/06/07 11:11:47;;;;;;;5.30;3.70;;;;;;;21.52;61.39;93584.25;5079959;28;20036;-42
2021/06/07 11:14:12;;;;;;;4.72;3.53;;;;;;;21.40;60.82;93584.28;5104040;28;20181;-43
2021/06/07 11:16:43;;;;;;;6.05;3.85;;;;;;;21.27;60.98;93592.66;5090201;28;20131;-41
2021/06/07 11:19:11;;;;;;;4.57;3.88;;;;;;;21.13;61.04;93598.19;5089986;28;20042;-42
2021/06/07 11:22:09;;;;;;;6.15;5.00;;;;;;;20.94;62.18;93607.59;5090453;28;20058;-44
2021/06/07 11:24:38;;;;;;;5.47;3.93;;;;;;;20.91;63.13;93606.03;5051667;28;20092;-45
2021/06/07 11:27:05;;;;;;;5.75;3.63;;;;;;;21.00;63.42;93604.44;5110356;28;20059;-41
2021/06/07 11:29:32;;;;;;;5.20;4.05;;;;;;;21.03;63.08;93606.75;5110274;28;20114;-41
2021/06/07 11:32:06;;;;;;;5.07;4.05;;;;;;;21.09;62.87;93603.59;5110471;28;20124;-43
2021/06/07 11:34:50;;;;;;;3.92;3.50;;;;;;;21.07;63.57;93615.41;5110490;28;20107;-40
2021/06/07 11:37:36;;;;;;;4.00;2.88;;;;;;;21.16;62.78;93604.66;5091511;28;20028;-42
2021/06/07 11:40:11;;;;;;;3.88;2.60;;;;;;;21.19;58.10;93606.22;5089886;28;20715;-43
2021/06/07 11:42:54;;;;;;;4.97;3.17;;;;;;;20.90;60.73;93610.19;5089567;28;20444;-41
2021/06/07 11:45:38;;;;;;;5.22;4.43;;;;;;;20.57;64.32;93609.63;5089988;28;20059;-41
2021/06/07 11:48:04;;;;;;;4.72;4.28;;;;;;;20.32;65.61;93610.25;5090268;28;20032;-42
2021/06/07 11:50:31;;;;;;;8.35;4.68;;;;;;;19.96;66.56;93615.66;5089588;28;20571;-40
2021/06/07 11:53:12;;;;;;;5.32;4.82;;;;;;;19.93;66.99;93605.66;5089534;28;20024;-40
2021/06/07 11:55:38;;;;;;;6.03;4.70;;;;;;;19.99;66.35;93614.47;5089314;28;20038;-41
2021/06/07 11:58:14;;;;;;;6.55;4.95;;;;;;;19.75;67.97;93613.66;5089506;28;20030;-40
2021/06/07 12:00:43;;;;;;;6.07;4.47;;;;;;;19.57;68.60;93596.47;5089380;28;20040;-41
2021/06/07 12:03:11;;;;;;;5.15;4.47;;;;;;;19.59;68.33;93613.41;5105142;28;20119;-40
2021/06/07 12:05:38;;;;;;;8.15;5.43;;;;;;;19.52;69.39;93613.59;5110149;28;20660;-40
2021/06/07 12:08:11;;;;;;;5.65;4.70;;;;;;;19.39;68.97;93612.09;5077462;28;20049;-40
2021/06/07 12:10:38;;;;;;;4.93;3.75;;;;;;;19.33;67.20;93617.28;5069095;28;20036;-40
2021/06/07 12:13:17;;;;;;;4.85;3.67;;;;;;;19.23;66.99;93619.41;5072723;28;20031;-42
2021/06/07 12:15:43;;;;;;;;;;;;;;;19.11;68.02;93606.72;5076392;28;20025;-40
2021/06/07 12:18:08;;;;;;;4.75;3.75;;;;;;;18.98;68.96;93601.66;5068353;28;19950;-40
2021/06/07 12:20:34;;;;;;;4.30;3.70;;;;;;;18.96;69.04;93616.25;5068574;28;20117;-41
2021/06/07 12:23:02;;;;;;;7.88;3.65;;;;;;;18.87;68.09;93611.44;5068448;28;20032;-40
2021/06/07 12:25:43;;;;;;;6.53;3.20;;;;;;;18.62;68.90;93608.38;5072022;28;20027;-40
2021/06/07 12:28:19;;;;;;;5.65;4.40;;;;;;;18.64;70.05;93602.94;5078795;28;20024;-39
2021/06/07 12:30:52;;;;;;;3.80;3.05;;;;;;;18.77;69.68;93599.59;5068504;28;20078;-41
2021/06/07 12:33:32;;;;;;;4.10;3.00;;;;;;;18.87;69.62;93595.41;5068377;28;20081;-42
2021/06/07 12:35:58;;;;;;;5.60;3.78;;;;;;;19.02;71.05;93593.53;5068315;28;20109;-42
2021/06/07 12:38:25;;;;;;;5.13;3.33;;;;;;;19.21;68.94;93580.09;5068075;28;20533;-42
2021/06/07 12:40:52;;;;;;;4.10;2.92;;;;;;;19.44;67.60;93585.09;5068637;28;20032;-42
2021/06/07 12:43:22;;;;;;;3.72;3.22;;;;;;;19.66;67.78;93586.50;5068247;28;20039;-38
2021/06/07 12:45:49;;;;;;;3.65;3.00;;;;;;;19.86;67.80;93593.34;5069882;28;20029;-39
2021/06/07 12:48:20;;;;;;;11.75;3.17;;;;;;;20.20;67.77;93597.53;5072757;28;20096;-40
2021/06/07 12:51:12;;;;;;;3.78;3.13;;;;;;;20.50;65.50;93598.66;5084615;28;20028;-42
2021/06/07 12:53:49;;;;;;;4.45;3.20;;;;;;;20.51;64.47;93597.31;5074930;28;20544;-39
2021/06/07 12:56:20;;;;;;;3.97;3.05;;;;;;;20.51;64.15;93600.13;5088044;28;20100;-40
2021/06/07 12:58:51;;;;;;;2.13;1.92;;;;;;;20.65;62.46;93596.06;5077997;28;20033;-39
2021/06/07 13:01:18;;;;;;;3.58;2.78;;;;;;;20.74;62.80;93592.41;5068237;28;20788;-39
2021/06/07 13:03:57;;;;;;;3.00;2.28;;;;;;;20.79;60.84;93591.28;5068055;28;20136;-39
2021/06/07 13:06:24;;;;;;;2.60;2.38;;;;;;;20.83;60.98;93585.19;5068116;28;20036;-39
2021/06/07 13:08:58;;;;;;;2.78;2.28;;;;;;;21.04;59.17;93582.22;5087588;28;20760;-40
2021/06/07 13:11:36;;;;;;;4.45;2.35;;;;;;;20.96;59.22;93574.03;5087035;28;20028;-40
2021/06/07 13:14:08;;;;;;;2.67;2.47;;;;;;;21.20;60.33;93580.34;5086966;28;20203;-41
2021/06/07 13:16:36;;;;;;;3.08;2.58;;;;;;;21.49;60.09;93579.84;5099736;28;20031;-39
2021/06/07 13:19:05;;;;;;;5.03;2.10;;;;;;;21.49;58.29;93577.78;5107593;28;20023;-39
2021/06/07 13:21:50;;;;;;;2.85;2.65;;;;;;;21.66;58.10;93576.59;5107469;28;20055;-42
2021/06/07 13:24:28;;;;;;;3.15;2.35;;;;;;;21.66;59.14;93573.78;5108041;28;20059;-38
2021/06/07 13:27:04;;;;;;;4.13;2.60;;;;;;;21.81;57.55;93559.13;5107831;28;20058;-38
2021/06/07 13:29:33;;;;;;;2.63;2.42;;;;;;;21.94;56.17;93558.47;5108362;28;20034;-42
2021/06/07 13:32:10;;;;;;;2.33;1.90;;;;;;;22.10;57.28;93562.16;5108556;28;20033;-39
2021/06/07 13:34:45;;;;;;;10.77;4.10;;;;;;;22.14;55.70;93556.00;5107859;28;20114;-38
2021/06/07 13:37:23;;;;;;;3.42;2.55;;;;;;;22.11;55.14;93554.47;5107555;28;20046;-39
2021/06/07 13:39:56;;;;;;;2.50;2.30;;;;;;;22.03;56.63;93540.69;5108055;28;20024;-39
2021/06/07 13:42:22;;;;;;;2.63;2.22;;;;;;;22.02;55.61;93542.06;5107963;28;20026;-40
2021/06/07 13:44:51;;;;;;;3.20;2.47;;;;;;;22.10;56.91;93542.47;5095541;28;20028;-39
2021/06/07 13:47:23;;;;;;;;;;;;;;;22.11;56.78;93546.72;5094752;28;20042;-39
2021/06/07 13:50:11;;;;;;;3.45;2.78;;;;;;;22.07;54.31;93540.91;5089413;28;19915;-39
2021/06/07 13:52:41;;;;;;;4.05;2.70;;;;;;;21.95;55.08;93536.72;5096220;28;20034;-41
2021/06/07 13:55:20;;;;;;;2.13;1.90;;;;;;;21.50;54.97;93544.81;5096488;28;20035;-39
2021/06/07 13:58:02;;;;;;;2.38;2.17;;;;;;;21.12;56.71;93549.72;5087605;28;20054;-40
2021/06/07 14:00:30;;;;;;;2.35;2.15;;;;;;;21.03;57.99;93549.88;5087326;28;20028;-40
2021/06/07 14:02:56;;;;;;;3.88;2.67;;;;;;;21.04;58.72;93552.09;5087159;28;20020;-41
2021/06/07 14:05:23;;;;;;;4.00;2.45;;;;;;;21.13;58.59;93547.66;5087013;28;20100;-39
2021/06/07 14:07:48;;;;;;;2.67;2.25;;;;;;;21.08;58.64;93545.97;5087116;28;20051;-40
2021/06/07 14:10:15;;;;;;;2.95;2.38;;;;;;;21.24;59.11;93540.53;5087523;28;20044;-41
2021/06/07 14:12:40;;;;;;;2.33;2.00;;;;;;;21.44;58.53;93538.84;5086956;28;20036;-39
2021/06/07 14:15:07;;;;;;;2.08;1.88;;;;;;;21.55;57.26;93532.44;5085828;28;20161;-41
2021/06/07 14:17:32;;;;;;;2.75;2.20;;;;;;;21.68;57.42;93534.53;5086547;28;20024;-41
2021/06/07 14:19:58;;;;;;;2.80;2.10;;;;;;;21.70;57.08;93531.88;5086789;28;20031;-40
2021/06/07 14:25:13;;;;;;;2.88;2.25;;;;;;;21.42;56.96;93519.09;5086735;28;20046;-40
2021/06/07 14:27:39;;;;;;;4.97;2.47;;;;;;;21.43;57.56;93524.06;5086215;28;20050;-42
2021/06/07 14:30:05;;;;;;;2.88;2.17;;;;;;;21.52;57.25;93516.81;5086210;28;20770;-41
2021/06/07 14:32:31;;;;;;;2.17;1.98;;;;;;;21.36;56.59;93507.50;5086837;28;20092;-42
2021/06/07 14:34:56;;;;;;;2.67;2.15;;;;;;;21.08;56.76;93517.88;5088872;28;20421;-41
2021/06/07 14:37:22;;;;;;;2.55;2.05;;;;;;;21.04;57.54;93512.78;5105702;28;20525;-41
2021/06/07 14:39:48;;;;;;;10.63;2.22;;;;;;;21.06;59.30;93510.09;5106743;28;20020;-41
2021/06/07 14:42:13;;;;;;;2.40;1.90;;;;;;;21.10;60.05;93509.56;5100309;28;20028;-43
2021/06/07 14:44:39;;;;;;;4.13;2.95;;;;;;;20.95;61.45;93508.03;5106358;28;20031;-41
2021/06/07 14:47:04;;;;;;;1.92;1.80;;;;;;;20.98;61.25;93501.19;5106280;28;20020;-42
2021/06/07 14:49:30;;;;;;;2.70;2.22;;;;;;;21.05;60.51;93499.47;5107192;28;20027;-41
2021/06/07 14:51:55;;;;;;;2.45;2.25;;;;;;;20.97;60.49;93502.53;5091783;28;20032;-43
2021/06/07 14:54:22;;;;;;;4.68;2.70;;;;;;;20.84;60.92;93506.00;5087558;28;20035;-40
2021/06/07 14:56:48;;;;;;;5.03;3.05;;;;;;;20.86;60.94;93503.28;5087334;28;20552;-44
2021/06/07 14:59:14;;;;;;;3.30;2.90;;;;;;;20.82;60.78;93507.94;5089352;28;20019;-42
2021/06/07 15:01:40;;;;;;;2.72;2.15;;;;;;;20.68;60.95;93512.75;5089906;28;20081;-44
2021/06/07 15:04:05;;;;;;;3.15;2.65;;;;;;;20.71;60.21;93515.06;5090126;28;20020;-44
2021/06/07 15:06:31;;;;;;;3.60;2.63;;;;;;;20.72;61.10;93519.34;5089032;28;20283;-42
2021/06/07 15:08:57;;;;;;;4.78;2.70;;;;;;;20.67;61.73;93520.44;5068352;28;20035;-42
2021/06/07 15:11:22;;;;;;;3.60;2.28;;;;;;;20.62;61.01;93515.94;5068764;28;20099;-42
2021/06/07 15:13:48;;;;;;;5.75;2.83;;;;;;;20.55;61.30;93524.63;5068477;28;20484;-41
2021/06/07 15:16:13;;;;;;;2.97;2.67;;;;;;;20.40;62.21;93515.38;5069588;28;20024;-42
2021/06/07 15:18:40;;;;;;;4.65;2.50;;;;;;;20.34;61.33;93528.31;5051663;28;20028;-42
2021/06/07 15:21:06;;;;;;;3.85;3.10;;;;;;;20.21;61.94;93526.13;5069567;28;20086;-44
2021/06/07 15:23:31;;;;;;;4.28;2.28;;;;;;;20.04;63.00;93527.19;5071930;28;20060;-42
2021/06/07 15:25:57;;;;;;;2.35;2.15;;;;;;;19.95;62.61;93522.44;5067238;28;20081;-43
2021/06/07 15:28:22;;;;;;;2.13;1.90;;;;;;;19.84;62.46;93531.56;5068631;28;20505;-41
2021/06/07 15:30:48;;;;;;;3.30;3.00;;;;;;;19.81;63.74;93534.88;5074515;28;20051;-42
2021/06/07 15:33:14;;;;;;;3.88;2.80;;;;;;;19.76;63.23;93533.16;5087679;28;20504;-41
2021/06/07 15:36:00;;;;;;;3.92;2.97;;;;;;;19.65;63.62;93534.59;5080367;28;20046;-41
2021/06/07 15:38:33;;;;;;;4.55;2.88;;;;;;;19.60;64.31;93528.00;5069040;28;20445;-42
2021/06/07 15:41:03;;;;;;;3.35;2.90;;;;;;;19.60;64.07;93535.69;5070676;28;20056;-41
2021/06/07 15:43:30;;;;;;;4.85;2.17;;;;;;;19.57;63.96;93522.91;5070598;28;20115;-41
2021/06/07 15:45:56;;;;;;;3.00;2.65;;;;;;;19.57;64.14;93520.84;5070608;28;20085;-42
2021/06/07 15:48:23;;;;;;;3.25;2.70;;;;;;;19.54;64.19;93519.25;5070683;28;20583;-41
2021/06/07 15:50:49;;;;;;;3.53;2.63;;;;;;;19.51;64.05;93520.44;5070882;28;20055;-40
2021/06/07 15:53:14;;;;;;;3.22;2.92;;;;;;;19.45;64.29;93522.88;5070626;28;20481;-41
2021/06/07 15:55:40;;;;;;;4.63;2.85;;;;;;;19.37;64.01;93516.78;5070803;28;20047;-41
2021/06/07 15:58:06;;;;;;;4.05;2.75;;;;;;;19.30;65.22;93514.91;5070885;28;20111;-42
2021/06/07 16:00:32;;;;;;;6.03;2.88;;;;;;;19.35;64.51;93519.44;5071124;28;20025;-40
2021/06/07 16:02:58;;;;;;;3.00;2.53;;;;;;;19.33;64.95;93518.56;5070497;28;20095;-43
2021/06/07 16:05:24;;;;;;;3.75;2.22;;;;;;;19.36;65.15;93517.38;5070508;28;20024;-40
2021/06/07 16:07:50;;;;;;;3.42;3.00;;;;;;;19.36;65.80;93511.78;5081438;28;20055;-43
2021/06/07 16:10:16;;;;;;;4.57;2.83;;;;;;;19.39;65.80;93519.69;5090640;28;20110;-41
2021/06/07 16:12:42;;;;;;;5.35;3.67;;;;;;;19.37;65.41;93527.97;5090249;28;20059;-41
2021/06/07 16:15:09;;;;;;;4.05;2.70;;;;;;;19.34;64.47;93523.56;5090385;28;20094;-42
2021/06/07 16:17:43;;;;;;;3.83;3.20;;;;;;;19.29;64.37;93521.84;5089896;28;20020;-43
2021/06/07 16:22:53;;;;;;;3.38;2.55;;;;;;;19.23;64.55;93521.44;5090860;28;20125;-40
2021/06/07 16:25:18;;;;;;;2.83;2.22;;;;;;;19.12;65.40;93516.56;5090711;28;20016;-40
2021/06/07 16:27:43;;;;;;;3.60;3.08;;;;;;;19.14;64.79;93516.69;5089154;28;20028;-41
2021/06/07 16:30:10;;;;;;;4.13;2.78;;;;;;;18.98;65.54;93507.25;5088517;28;20019;-40
2021/06/07 16:32:35;;;;;;;5.03;2.78;;;;;;;19.06;66.17;93518.97;5088602;28;20024;-40
2021/06/07 16:35:01;;;;;;;3.50;2.42;;;;;;;19.12;65.74;93518.63;5088309;28;20046;-42
2021/06/07 16:37:26;;;;;;;9.93;2.55;;;;;;;19.11;65.67;93517.88;5087422;28;20507;-41
2021/06/07 16:39:52;;;;;;;3.95;2.80;;;;;;;19.04;66.31;93512.50;5089074;28;20027;-41
2021/06/07 16:42:17;;;;;;;3.85;3.10;;;;;;;19.02;67.30;93521.50;5089280;28;20524;-42
2021/06/07 16:44:43;;;;;;;8.90;3.92;;;;;;;18.97;68.22;93510.66;5071914;28;20032;-40
2021/06/07 16:47:08;;;;;;;5.38;3.45;;;;;;;19.06;68.66;93509.84;5096892;28;20500;-41
2021/06/07 16:49:34;;;;;;;7.22;3.58;;;;;;;18.95;69.36;93511.25;5110705;28;20023;-41
2021/06/07 16:52:01;;;;;;;3.72;3.33;;;;;;;18.85;69.94;93516.94;5110211;28;20553;-41
2021/06/07 16:54:26;;;;;;;4.45;3.35;;;;;;;18.86;70.12;93515.59;5109942;28;20031;-41
2021/06/07 16:56:52;;;;;;;4.28;2.97;;;;;;;18.90;70.28;93509.53;5109631;28;20097;-41
2021/06/07 16:59:17;;;;;;;3.15;2.53;;;;;;;18.85;70.39;93507.81;5110052;28;20031;-42
2021/06/07 17:01:43;;;;;;;4.28;3.33;;;;;;;18.71;71.20;93515.31;5109975;28;20026;-42
2021/06/07 17:04:08;;;;;;;4.13;3.25;;;;;;;18.68;71.65;93522.09;5109755;28;20036;-40
2021/06/07 17:06:33;;;;;;;3.38;3.03;;;;;;;18.66;71.29;93514.31;5109435;28;20027;-41
2021/06/07 17:08:59;;;;;;;3.42;2.72;;;;;;;18.61;71.29;93517.44;5109484;28;20108;-41
2021/06/07 17:11:28;;;;;;;4.78;3.28;;;;;;;18.62;71.66;93530.81;5109657;28;20039;-41
2021/06/07 17:13:56;;;;;;;;;;;;;;;18.61;71.88;93517.44;5110730;28;20089;-42
2021/06/07 17:16:21;;;;;;;3.80;3.42;;;;;;;18.62;71.49;93528.03;5110353;28;19975;-40
2021/06/07 17:18:47;;;;;;;3.70;3.25;;;;;;;18.47;72.10;93519.31;5109616;28;20016;-41
2021/06/07 17:21:12;;;;;;;3.28;2.63;;;;;;;18.43;72.17;93522.53;5109695;28;20028;-40
2021/06/07 17:23:37;;;;;;;5.18;3.78;;;;;;;18.40;72.32;93514.63;5109846;28;20411;-41
2021/06/07 17:26:03;;;;;;;3.55;2.97;;;;;;;18.34;72.15;93506.56;5109567;28;20499;-41
2021/06/07 17:28:29;;;;;;;4.72;3.28;;;;;;;18.36;72.36;93498.31;5109313;28;20031;-40
2021/06/07 17:30:55;;;;;;;3.30;2.92;;;;;;;18.51;72.67;93516.78;5109308;28;20020;-42
2021/06/07 17:33:22;;;;;;;3.40;3.05;;;;;;;18.49;72.79;93520.19;5109294;28;20030;-43
2021/06/07 17:35:48;;;;;;;6.70;3.90;;;;;;;18.34;73.20;93517.75;5102201;28;20028;-42
2021/06/07 17:38:14;;;;;;;9.27;4.80;;;;;;;18.21;73.88;93521.06;5087375;28;20012;-41
2021/06/07 17:40:41;;;;;;;5.30;4.15;;;;;;;18.14;74.29;93521.97;5088950;28;20028;-41
2021/06/07 17:43:06;;;;;;;4.18;3.50;;;;;;;18.08;74.22;93527.16;5093166;28;20027;-41
2021/06/07 17:45:32;;;;;;;6.40;3.13;;;;;;;18.10;74.04;93516.13;5109076;28;20034;-42
2021/06/07 17:47:57;;;;;;;8.30;3.92;;;;;;;18.07;74.38;93511.72;5102038;28;20023;-43
2021/06/07 17:50:23;;;;;;;4.22;3.42;;;;;;;17.99;74.33;93506.34;5097881;28;20023;-43
2021/06/07 17:52:49;;;;;;;4.93;3.50;;;;;;;17.87;75.02;93508.28;5097816;28;20023;-41
2021/06/07 17:55:17;;;;;;;6.55;4.55;;;;;;;17.84;74.67;93512.28;5098243;28;20035;-41
2021/06/07 17:57:43;;;;;;;3.70;2.90;;;;;;;17.86;74.53;93512.44;5096082;28;20024;-43